createdAt,value
2022-09-02T00:00:23.612Z,98429.59
2022-09-02T00:03:25.333Z,98422.34
2022-09-02T00:06:27.458Z,98434.84
2022-09-02T00:09:29.037Z,98424.41
2022-09-02T00:12:30.638Z,98425.38
2022-09-02T00:15:32.988Z,98423.66
2022-09-02T00:18:34.539Z,98418.53
2022-09-02T00:21:37.083Z,98421.16
2022-09-02T00:24:38.604Z,98424.63
2022-09-02T00:27:40.136Z,98413.44
2022-09-02T00:30:41.735Z,98422.19
2022-09-02T00:33:43.342Z,98411.69
2022-09-02T00:36:44.918Z,98421.34
2022-09-02T00:39:46.417Z,98411.69
2022-09-02T00:42:47.948Z,98408.25
2022-09-02T00:45:49.566Z,98404.84
2022-09-02T00:49:00.647Z,98401.19
2022-09-02T00:52:11.034Z,98404.56
2022-09-02T00:55:21.290Z,98403.66
2022-09-02T00:58:25.726Z,98413.41
2022-09-02T01:01:27.445Z,98403.91
2022-09-02T01:04:29.283Z,98407.50
2022-09-02T01:07:34.156Z,98408.41
2022-09-02T01:10:35.718Z,98411.19
2022-09-02T01:13:39.700Z,98405.91
2022-09-02T01:16:47.246Z,98405.28
2022-09-02T01:19:53.747Z,98401.81
2022-09-02T01:22:55.291Z,98402.66
2022-09-02T01:25:57.014Z,98398.44
2022-09-02T01:28:58.519Z,98400.06
2022-09-02T01:32:00.099Z,98400.31
2022-09-02T01:35:01.738Z,98391.63
2022-09-02T01:38:03.677Z,98392.56
2022-09-02T01:41:05.345Z,98393.50
2022-09-02T01:44:07.001Z,98396.91
2022-09-02T01:47:08.526Z,98382.97
2022-09-02T01:50:10.091Z,98393.50
2022-09-02T01:53:11.884Z,98390.94
2022-09-02T01:56:13.635Z,98377.81
2022-09-02T01:59:17.989Z,98378.75
2022-09-02T02:02:20.223Z,98382.31
2022-09-02T02:05:21.695Z,98386.78
2022-09-02T02:08:23.806Z,98377.16
2022-09-02T02:11:25.438Z,98381.31
2022-09-02T02:14:26.940Z,98383.06
2022-09-02T02:17:28.439Z,98378.00
2022-09-02T02:20:29.966Z,98384.97
2022-09-02T02:23:31.471Z,98375.47
2022-09-02T02:26:32.982Z,98383.50
2022-09-02T02:29:34.518Z,98379.22
2022-09-02T02:32:36.143Z,98386.19
2022-09-02T02:35:37.708Z,98380.94
2022-09-02T02:38:39.492Z,98379.25
2022-09-02T02:41:44.687Z,98375.81
2022-09-02T02:44:46.488Z,98374.19
2022-09-02T02:47:48.038Z,98375.94
2022-09-02T02:50:49.621Z,98378.50
2022-09-02T02:53:52.367Z,98374.09
2022-09-02T02:56:56.183Z,98371.56
2022-09-02T02:59:58.052Z,98374.31
2022-09-02T03:03:06.761Z,98376.03
2022-09-02T03:06:08.290Z,98378.69
2022-09-02T03:09:09.872Z,98381.41
2022-09-02T03:12:11.400Z,98380.53
2022-09-02T03:15:14.107Z,98377.91
2022-09-02T03:18:15.642Z,98377.03
2022-09-02T03:21:18.104Z,98376.19
2022-09-02T03:24:19.846Z,98366.59
2022-09-02T03:27:21.454Z,98365.84
2022-09-02T03:30:25.245Z,98363.19
2022-09-02T03:33:26.755Z,98360.69
2022-09-02T03:36:30.540Z,98363.31
2022-09-02T03:39:32.058Z,98365.06
2022-09-02T03:42:33.596Z,98372.16
2022-09-02T03:45:35.145Z,98369.59
2022-09-02T03:48:36.721Z,98368.56
2022-09-02T03:51:42.666Z,98366.00
2022-09-02T03:54:44.299Z,98369.53
2022-09-02T03:57:46.230Z,98360.91
2022-09-02T04:00:52.457Z,98369.69
2022-09-02T04:03:54.010Z,98369.72
2022-09-02T04:06:55.572Z,98368.88
2022-09-02T04:09:57.450Z,98367.97
2022-09-02T04:12:58.955Z,98362.81
2022-09-02T04:16:02.056Z,98358.47
2022-09-02T04:19:04.215Z,98362.06
2022-09-02T04:22:07.166Z,98359.47
2022-09-02T04:25:09.631Z,98362.03
2022-09-02T04:28:11.208Z,98366.41
2022-09-02T04:31:14.590Z,98359.44
2022-09-02T04:34:16.185Z,98360.25
2022-09-02T04:37:17.757Z,98357.63
2022-09-02T04:40:19.365Z,98357.72
2022-09-02T04:43:21.790Z,98356.03
2022-09-02T04:46:33.934Z,98360.38
2022-09-02T04:49:36.329Z,98353.22
2022-09-02T04:52:38.033Z,98359.31
2022-09-02T04:55:40.794Z,98362.94
2022-09-02T04:58:44.321Z,98362.06
2022-09-02T05:01:45.905Z,98360.34
2022-09-02T05:04:47.515Z,98369.09
2022-09-02T05:07:49.293Z,98366.38
2022-09-02T05:10:50.896Z,98374.22
2022-09-02T05:13:52.505Z,98368.97
2022-09-02T05:16:54.476Z,98367.22
2022-09-02T05:19:56.150Z,98369.00
2022-09-02T05:22:57.747Z,98372.50
2022-09-02T05:25:59.246Z,98375.06
2022-09-02T05:29:00.880Z,98368.94
2022-09-02T05:32:04.145Z,98375.88
2022-09-02T05:35:05.889Z,98374.09
2022-09-02T05:38:08.470Z,98372.25
2022-09-02T05:41:16.009Z,98373.94
2022-09-02T05:44:17.535Z,98378.16
2022-09-02T05:47:19.075Z,98380.72
2022-09-02T05:50:20.693Z,98371.06
2022-09-02T05:53:22.661Z,98362.25
2022-09-02T05:56:24.690Z,98371.75
2022-09-02T05:59:27.011Z,98373.41
2022-09-02T06:02:28.510Z,98372.38
2022-09-02T06:05:30.718Z,98377.50
2022-09-02T06:08:32.540Z,98376.47
2022-09-02T06:11:34.695Z,98368.38
2022-09-02T06:14:37.986Z,98371.75
2022-09-02T06:17:39.499Z,98376.00
2022-09-02T06:20:41.799Z,98370.63
2022-09-02T06:23:43.543Z,98369.59
2022-09-02T06:26:45.093Z,98374.69
2022-09-02T06:29:46.589Z,98373.72
2022-09-02T06:32:50.662Z,98369.13
2022-09-02T06:35:52.398Z,98370.47
2022-09-02T06:38:54.874Z,98370.25
2022-09-02T06:41:56.455Z,98366.47
2022-09-02T06:44:58.017Z,98360.91
2022-09-02T06:47:59.592Z,98365.97
2022-09-02T06:51:01.683Z,98366.66
2022-09-02T06:54:03.474Z,98360.03
2022-09-02T06:57:05.157Z,98361.59
2022-09-02T07:00:08.196Z,98359.72
2022-09-02T07:03:28.263Z,98355.75
2022-09-02T07:06:36.381Z,98356.09
2022-09-02T07:09:37.960Z,98355.84
2022-09-02T07:12:39.787Z,98362.47
2022-09-02T07:15:46.465Z,98346.25
2022-09-02T07:18:48.010Z,98348.91
2022-09-02T07:21:49.613Z,98345.66
2022-09-02T07:24:51.199Z,98349.59
2022-09-02T07:27:53.072Z,98344.69
2022-09-02T07:30:59.712Z,98338.72
2022-09-02T07:34:01.831Z,98335.56
2022-09-02T07:37:07.291Z,98338.50
2022-09-02T07:40:11.820Z,98334.88
2022-09-02T07:43:13.635Z,98327.81
2022-09-02T07:46:15.684Z,98333.44
2022-09-02T07:49:20.882Z,98316.72
2022-09-02T07:52:25.025Z,98335.25
2022-09-02T07:55:26.912Z,98329.34
2022-09-02T07:58:28.353Z,98332.19
2022-09-02T08:01:34.412Z,98332.16
2022-09-02T08:04:36.015Z,98328.13
2022-09-02T08:07:37.622Z,98325.78
2022-09-02T08:10:39.170Z,98331.09
2022-09-02T08:13:40.742Z,98311.75
2022-09-02T08:16:42.338Z,98316.94
2022-09-02T08:19:45.100Z,98310.97
2022-09-02T08:22:51.965Z,98311.63
2022-09-02T08:26:02.658Z,98325.50
2022-09-02T08:29:05.224Z,98307.38
2022-09-02T08:32:06.868Z,98305.47
2022-09-02T08:35:09.194Z,98276.13
2022-09-02T08:38:10.741Z,98291.81
2022-09-02T08:41:25.110Z,98286.22
2022-09-02T08:44:28.536Z,98290.22
2022-09-02T08:47:30.291Z,98292.16
2022-09-02T08:50:31.838Z,98293.78
2022-09-02T08:53:54.391Z,98277.66
2022-09-02T08:56:56.274Z,98290.69
2022-09-02T09:00:00.804Z,98276.03
2022-09-02T09:03:21.514Z,98269.88
2022-09-02T09:06:29.903Z,98267.50
2022-09-02T09:10:00.360Z,98275.22
2022-09-02T09:13:15.226Z,98271.59
2022-09-02T09:16:32.447Z,98272.78
2022-09-02T09:19:39.307Z,98269.84
2022-09-02T09:22:40.841Z,98240.47
2022-09-02T09:25:42.339Z,98246.25
2022-09-02T09:28:45.958Z,98228.03
2022-09-02T09:31:53.412Z,98225.88
2022-09-02T09:34:57.357Z,98242.91
2022-09-02T09:37:59.330Z,98236.34
2022-09-02T09:41:20.685Z,98240.03
2022-09-02T09:44:49.167Z,98225.78
2022-09-02T09:48:13.759Z,98230.25
2022-09-02T09:51:16.049Z,98216.19
2022-09-02T09:54:17.616Z,98237.94
2022-09-02T09:57:24.031Z,98228.53
2022-09-02T10:00:33.123Z,98235.50
2022-09-02T10:03:34.750Z,98220.22
2022-09-02T10:06:38.682Z,98216.09
2022-09-02T10:09:40.154Z,98210.50
2022-09-02T10:12:41.766Z,98183.19
2022-09-02T10:16:34.035Z,98177.47
2022-09-02T10:19:44.018Z,98160.53
2022-09-02T10:23:04.708Z,98162.63
2022-09-02T10:26:12.788Z,98179.34
2022-09-02T10:29:33.932Z,98165.91
2022-09-02T10:32:53.533Z,98178.00
2022-09-02T10:36:23.292Z,98174.88
2022-09-02T10:39:34.061Z,98172.88
2022-09-02T10:42:50.897Z,98156.75
2022-09-02T10:45:55.070Z,98170.50
2022-09-02T10:49:11.360Z,98159.56
2022-09-02T10:52:26.231Z,98158.97
2022-09-02T10:55:58.452Z,98136.72
2022-09-02T10:59:05.726Z,98166.84
2022-09-02T11:02:30.633Z,98156.44
2022-09-02T11:05:51.887Z,98139.50
2022-09-02T11:08:55.239Z,98136.25
2022-09-02T11:12:01.880Z,98171.72
2022-09-02T11:15:16.016Z,98153.09
2022-09-02T11:18:45.176Z,98171.41
2022-09-02T11:22:01.397Z,98148.84
2022-09-02T11:25:15.518Z,98104.88
2022-09-02T11:28:46.113Z,98118.59
2022-09-02T11:32:14.024Z,98113.84
2022-09-02T11:35:24.123Z,98117.81
2022-09-02T11:38:36.265Z,98122.03
2022-09-02T11:42:00.955Z,98118.38
2022-09-02T11:45:22.038Z,98132.41
2022-09-02T11:48:23.977Z,98109.72
2022-09-02T11:51:31.187Z,98157.28
2022-09-02T11:54:41.339Z,98123.56
2022-09-02T11:57:42.914Z,98141.03
2022-09-02T12:00:58.371Z,98125.09
2022-09-02T12:07:48.943Z,98108.22
2022-09-02T12:10:51.354Z,98110.47
2022-09-02T12:13:53.719Z,98114.00
2022-09-02T12:17:03.776Z,98099.34
2022-09-02T12:20:08.022Z,98103.81
2022-09-02T12:23:28.635Z,98103.91
2022-09-02T12:26:30.819Z,98071.22
2022-09-02T12:29:33.216Z,98071.88
2022-09-02T12:32:47.024Z,98068.13
2022-09-02T12:35:48.398Z,98068.78
2022-09-02T12:38:50.226Z,98061.88
2022-09-02T12:41:58.001Z,98063.00
2022-09-02T12:45:13.689Z,98077.91
2022-09-02T12:48:24.898Z,98058.03
2022-09-02T12:52:04.901Z,98057.97
2022-09-02T12:55:15.615Z,98050.09
2022-09-02T12:58:20.676Z,98061.09
2022-09-02T13:01:30.852Z,98024.44
2022-09-02T13:04:38.875Z,97999.13
2022-09-02T13:07:57.183Z,98023.09
2022-09-02T13:11:06.713Z,98011.31
2022-09-02T13:14:35.135Z,98017.22
2022-09-02T13:18:07.643Z,98011.03
2022-09-02T13:21:31.673Z,98011.31
2022-09-02T13:24:56.850Z,98001.22
2022-09-02T13:28:40.119Z,98004.31
2022-09-02T13:31:41.621Z,98009.72
2022-09-02T13:34:46.704Z,98010.59
2022-09-02T13:37:56.577Z,97996.56
2022-09-02T13:40:58.156Z,97995.06
2022-09-02T13:44:10.448Z,97972.53
2022-09-02T13:47:20.688Z,97965.34
2022-09-02T13:50:24.663Z,97975.06
2022-09-02T13:53:45.402Z,97961.25
2022-09-02T13:56:55.048Z,97946.84
2022-09-02T13:59:56.862Z,97965.81
2022-09-02T14:03:01.151Z,97966.84
2022-09-02T14:06:03.654Z,97961.78
2022-09-02T14:09:07.364Z,97957.81
2022-09-02T14:12:09.059Z,97952.94
2022-09-02T14:15:12.948Z,97941.97
2022-09-02T14:18:18.872Z,97952.03
2022-09-02T14:21:20.465Z,97947.03
2022-09-02T14:24:23.979Z,97926.91
2022-09-02T14:27:25.556Z,97932.75
2022-09-02T14:30:31.588Z,97932.91
2022-09-02T14:33:36.115Z,97937.78
2022-09-02T14:36:38.239Z,97949.97
2022-09-02T14:39:51.851Z,97946.38
2022-09-02T14:42:57.540Z,97961.88
2022-09-02T14:46:05.261Z,97953.63
2022-09-02T14:49:08.814Z,97948.69
2022-09-02T14:52:17.165Z,97979.53
2022-09-02T14:55:41.920Z,97999.53
2022-09-02T14:58:43.427Z,98014.91
2022-09-02T15:01:47.176Z,97998.59
2022-09-02T15:04:49.133Z,97983.03
2022-09-02T15:07:50.680Z,97996.16
2022-09-02T15:10:53.296Z,97987.84
2022-09-02T15:13:54.838Z,97988.63
2022-09-02T15:16:56.432Z,97993.44
2022-09-02T15:19:57.988Z,97990.13
2022-09-02T15:22:59.594Z,97976.88
2022-09-02T15:26:01.927Z,97973.81
2022-09-02T15:29:03.601Z,97985.47
2022-09-02T15:32:05.270Z,98014.59
2022-09-02T15:35:07.094Z,98000.13
2022-09-02T15:38:08.803Z,98021.00
2022-09-02T15:41:15.052Z,98011.88
2022-09-02T15:44:17.656Z,97998.88
2022-09-02T15:47:19.729Z,97989.72
2022-09-02T15:50:21.256Z,97993.25
2022-09-02T15:53:23.120Z,98006.75
2022-09-02T15:56:26.348Z,97998.50
2022-09-02T15:59:28.151Z,97998.22
2022-09-02T16:02:29.823Z,98017.19
2022-09-02T16:05:34.403Z,98000.03
2022-09-02T16:08:36.193Z,98006.91
2022-09-02T16:11:38.702Z,98010.09
2022-09-02T16:14:40.233Z,98003.69
2022-09-02T16:17:42.079Z,97999.69
2022-09-02T16:20:43.588Z,98000.16
2022-09-02T16:23:45.090Z,98010.16
2022-09-02T16:26:46.649Z,98028.69
2022-09-02T16:29:48.175Z,98053.00
2022-09-02T16:32:53.092Z,98038.03
2022-09-02T16:35:54.598Z,98028.84
2022-09-02T16:38:56.354Z,98035.38
2022-09-02T16:41:58.232Z,98048.66
2022-09-02T16:44:59.749Z,98051.19
2022-09-02T16:48:01.545Z,98048.63
2022-09-02T16:51:04.240Z,98043.03
2022-09-02T16:54:05.779Z,98024.53
2022-09-02T16:57:07.636Z,98037.41
2022-09-02T17:00:10.285Z,98042.72
2022-09-02T17:03:12.419Z,98034.38
2022-09-02T17:06:14.004Z,98043.03
2022-09-02T17:09:16.328Z,98039.72
2022-09-02T17:12:18.012Z,98038.78
2022-09-02T17:15:19.551Z,98045.50
2022-09-02T17:18:21.052Z,98053.22
2022-09-02T17:21:34.007Z,98049.03
2022-09-02T17:24:35.540Z,98046.09
2022-09-02T17:27:37.571Z,98043.41
2022-09-02T17:30:39.135Z,98049.00
2022-09-02T17:33:40.712Z,98051.94
2022-09-02T17:36:42.080Z,98041.75
2022-09-02T17:39:43.761Z,98048.03
2022-09-02T17:42:45.361Z,98052.91
2022-09-02T17:45:46.978Z,98064.69
2022-09-02T17:49:12.955Z,98058.81
2022-09-02T17:52:14.067Z,98068.19
2022-09-02T17:55:19.721Z,98063.13
2022-09-02T17:58:21.574Z,98071.53
2022-09-02T18:01:23.254Z,98066.75
2022-09-02T18:04:43.591Z,98068.22
2022-09-02T18:08:01.776Z,98065.25
2022-09-02T18:11:05.278Z,98072.31
2022-09-02T18:14:46.845Z,98066.22
2022-09-02T18:17:49.712Z,98072.09
2022-09-02T18:21:03.758Z,98078.19
2022-09-02T18:24:25.390Z,98077.38
2022-09-02T18:27:48.280Z,98076.06
2022-09-02T18:31:14.986Z,98078.47
2022-09-02T18:34:32.282Z,98079.41
2022-09-02T18:37:55.286Z,98076.91
2022-09-02T18:41:15.619Z,98076.63
2022-09-02T18:44:19.245Z,98079.03
2022-09-02T18:47:23.591Z,98073.38
2022-09-02T18:50:47.714Z,98068.69
2022-09-02T18:53:50.053Z,98069.94
2022-09-02T18:57:01.912Z,98072.72
2022-09-02T19:00:07.462Z,98070.94
2022-09-02T19:03:09.051Z,98076.16
2022-09-02T19:06:15.978Z,98077.78
2022-09-02T19:09:17.540Z,98076.63
2022-09-02T19:12:19.519Z,98064.81
2022-09-02T19:15:21.141Z,98072.38
2022-09-02T19:18:22.814Z,98076.91
2022-09-02T19:21:47.181Z,98076.13
2022-09-02T19:24:57.093Z,98077.06
2022-09-02T19:28:02.366Z,98078.22
2022-09-02T19:31:03.978Z,98081.72
2022-09-02T19:34:05.511Z,98081.84
2022-09-02T19:37:07.051Z,98069.13
2022-09-02T19:40:09.631Z,98072.34
2022-09-02T19:43:13.754Z,98068.97
2022-09-02T19:46:43.948Z,98070.53
2022-09-02T19:49:36.856Z,98064.81
2022-09-02T19:52:43.178Z,98062.38
2022-09-02T19:55:44.884Z,98054.25
2022-09-02T19:58:46.693Z,98053.75
2022-09-02T20:01:48.084Z,98053.28
2022-09-02T20:04:49.616Z,98054.50
2022-09-02T20:07:51.359Z,98051.78
2022-09-02T20:10:57.064Z,98059.06
2022-09-02T20:13:58.639Z,98050.91
2022-09-02T20:17:00.601Z,98059.25
2022-09-02T20:20:02.898Z,98064.72
2022-09-02T20:23:05.493Z,98068.31
2022-09-02T20:26:37.515Z,98077.63
2022-09-02T20:30:24.681Z,98076.34
2022-09-02T20:33:26.250Z,98083.19
2022-09-02T20:36:34.379Z,98083.47
2022-09-02T20:39:44.760Z,98089.84
2022-09-02T20:42:56.091Z,98092.47
2022-09-02T20:46:02.334Z,98089.72
2022-09-02T20:49:09.938Z,98089.06
2022-09-02T20:52:31.302Z,98094.06
2022-09-02T20:55:38.888Z,98091.94
2022-09-02T20:58:46.293Z,98095.44
2022-09-02T21:01:47.844Z,98087.16
2022-09-02T21:04:53.439Z,98089.47
2022-09-02T21:08:22.148Z,98082.75
2022-09-02T21:11:23.845Z,98087.47
2022-09-02T21:14:26.160Z,98083.13
2022-09-02T21:17:48.942Z,98077.34
2022-09-02T21:20:58.994Z,98080.91
2022-09-02T21:24:08.655Z,98090.63
2022-09-02T21:27:14.612Z,98078.19
2022-09-02T21:30:24.186Z,98084.22
2022-09-02T21:33:25.741Z,98081.16
2022-09-02T21:36:29.586Z,98081.03
2022-09-02T21:39:33.074Z,98081.84
2022-09-02T21:42:54.559Z,98078.47
2022-09-02T21:46:16.402Z,98079.16
2022-09-02T21:49:36.866Z,98082.88
2022-09-02T21:52:47.348Z,98081.88
2022-09-02T21:55:59.112Z,98085.81
2022-09-02T21:59:28.392Z,98076.47
2022-09-02T22:02:57.866Z,98072.03
2022-09-02T22:06:04.243Z,98061.69
2022-09-02T22:09:20.669Z,98076.69
2022-09-02T22:12:22.967Z,98081.09
2022-09-02T22:15:33.966Z,98079.28
2022-09-02T22:19:01.202Z,98086.78
2022-09-02T22:22:24.381Z,98083.00
2022-09-02T22:25:27.524Z,98081.88
2022-09-02T22:28:35.655Z,98076.00
2022-09-02T22:31:38.390Z,98080.19
2022-09-02T22:34:50.542Z,98078.28
2022-09-02T22:37:58.332Z,98074.03
2022-09-02T22:41:01.928Z,98078.53
2022-09-02T22:45:01.218Z,98084.00
2022-09-02T22:48:27.666Z,98077.00
2022-09-02T22:51:49.730Z,98082.09
2022-09-02T22:54:52.303Z,98084.03
2022-09-02T22:58:03.251Z,98087.41
2022-09-02T23:01:17.222Z,98083.13
2022-09-02T23:04:31.854Z,98078.53
2022-09-02T23:07:35.872Z,98069.78
2022-09-02T23:10:40.579Z,98075.16
2022-09-02T23:14:12.122Z,98077.50
2022-09-02T23:17:38.916Z,98072.56
2022-09-02T23:21:02.955Z,98073.84
2022-09-02T23:24:17.045Z,98074.22
2022-09-02T23:27:39.703Z,98066.31
2022-09-02T23:30:49.087Z,98067.28
2022-09-02T23:34:15.732Z,98068.72
2022-09-02T23:37:33.312Z,98066.66
2022-09-02T23:40:43.651Z,98061.03
2022-09-02T23:43:45.379Z,98063.09
2022-09-02T23:47:11.186Z,98059.84
2022-09-02T23:50:34.307Z,98060.59
2022-09-02T23:53:41.954Z,98072.38
2022-09-02T23:56:49.531Z,98074.63
